KSNK

Details ICAO KSNK
Name WINSTON FLD
Region United States
Timezone America/Chicago (UTC-5.0)
Plans Departing 4
Arriving 2
Stats Elevation 2,430 ft / 741 m (AMSL)
Location 32.693002° -100.950735°
Runways 2
Magnetic Variation 5.599° E
Sunrise 2018-05-26 11:40:23 UTC / 2018-05-26 06:40:23 Local
Sunset 2018-05-27 01:44:15 UTC / 2018-05-26 20:44:15 Local
Advertisement - Login to hide

Runways

ID Width Length Bearing (true) Bearing (mag) Surface Threshold Offset Overrun Length
08 75 ft / 23 m 4,191 ft / 1,278 m 90.36° 84.76° Asphalt 0 ft / 0 m 0 ft / 0 m
17 100 ft / 30 m 5,615 ft / 1,711 m 180.35° 174.75° Asphalt 0 ft / 0 m 0 ft / 0 m
26 75 ft / 23 m 4,191 ft / 1,278 m 270.36° 264.76° Asphalt 0 ft / 0 m 0 ft / 0 m
35 100 ft / 30 m 5,615 ft / 1,711 m 0.35° 354.75° Asphalt 0 ft / 0 m 0 ft / 0 m

Map

Weather


0- 5 10 15 20 25 30 35+ Temperature / ° C

Clouds and Precipitation
Forecast for 2018-05-26 12:00 UTC. Updated an hour ago

Ground ~20,000 ft ~40,000 ft Winds

METAR

KSNK 261235Z AUTO 19006KT 10SM CLR 20/16 A2990 RMK AO2 T02000155

TAF

Not found

Frequencies

Recorded 119.92 MHz AWOS 3
Unicom 122.80 MHz CTAF/UNICOM
Warning: Do not use this data for real-world aviation or navigation. No guarantee of current accuracy is given.